sensor_id;sensor_type;location;lat;lon;timestamp;P1;durP1;ratioP1;P2;durP2;ratioP2
55756;SDS011;41676;44.610;44.078;2023-10-08T00:02:38;40.10;;;7.57;;
55756;SDS011;41676;44.610;44.078;2023-10-08T00:07:39;13.43;;;6.15;;
55756;SDS011;41676;44.610;44.078;2023-10-08T00:12:42;22.42;;;6.40;;
55756;SDS011;41676;44.610;44.078;2023-10-08T00:17:47;12.77;;;5.53;;
55756;SDS011;41676;44.610;44.078;2023-10-08T00:22:49;12.88;;;5.45;;
55756;SDS011;41676;44.610;44.078;2023-10-08T00:27:50;24.30;;;5.97;;
55756;SDS011;41676;44.610;44.078;2023-10-08T00:32:51;39.53;;;5.80;;
55756;SDS011;41676;44.610;44.078;2023-10-08T00:37:52;18.23;;;5.68;;
55756;SDS011;41676;44.610;44.078;2023-10-08T00:42:54;18.02;;;5.25;;
55756;SDS011;41676;44.610;44.078;2023-10-08T00:47:57;24.45;;;5.63;;
55756;SDS011;41676;44.610;44.078;2023-10-08T00:52:58;21.83;;;5.40;;
55756;SDS011;41676;44.610;44.078;2023-10-08T00:58:09;25.05;;;6.00;;
55756;SDS011;41676;44.610;44.078;2023-10-08T01:03:12;17.65;;;5.13;;
55756;SDS011;41676;44.610;44.078;2023-10-08T01:08:16;11.57;;;4.65;;
55756;SDS011;41676;44.610;44.078;2023-10-08T01:13:35;11.02;;;4.15;;
55756;SDS011;41676;44.610;44.078;2023-10-08T01:18:42;13.57;;;4.60;;
55756;SDS011;41676;44.610;44.078;2023-10-08T01:23:47;12.25;;;4.80;;
55756;SDS011;41676;44.610;44.078;2023-10-08T01:28:48;50.13;;;6.43;;
55756;SDS011;41676;44.610;44.078;2023-10-08T01:33:49;13.90;;;5.50;;
55756;SDS011;41676;44.610;44.078;2023-10-08T01:38:57;17.27;;;5.45;;
55756;SDS011;41676;44.610;44.078;2023-10-08T01:43:58;18.13;;;5.80;;
55756;SDS011;41676;44.610;44.078;2023-10-08T01:48:59;14.45;;;6.35;;
55756;SDS011;41676;44.610;44.078;2023-10-08T01:54:04;14.70;;;5.80;;
55756;SDS011;41676;44.610;44.078;2023-10-08T01:59:12;13.88;;;5.90;;
55756;SDS011;41676;44.610;44.078;2023-10-08T02:04:14;18.88;;;5.60;;
55756;SDS011;41676;44.610;44.078;2023-10-08T02:09:16;18.42;;;6.07;;
55756;SDS011;41676;44.610;44.078;2023-10-08T02:14:17;17.00;;;6.00;;
55756;SDS011;41676;44.610;44.078;2023-10-08T02:19:18;12.13;;;5.82;;
55756;SDS011;41676;44.610;44.078;2023-10-08T02:24:26;57.05;;;7.78;;
55756;SDS011;41676;44.610;44.078;2023-10-08T02:29:30;28.20;;;6.20;;
55756;SDS011;41676;44.610;44.078;2023-10-08T02:34:31;37.22;;;6.75;;
55756;SDS011;41676;44.610;44.078;2023-10-08T02:39:32;31.90;;;6.50;;
55756;SDS011;41676;44.610;44.078;2023-10-08T02:44:32;47.25;;;7.10;;
55756;SDS011;41676;44.610;44.078;2023-10-08T02:49:33;33.90;;;6.75;;
55756;SDS011;41676;44.610;44.078;2023-10-08T02:54:35;16.45;;;5.63;;
55756;SDS011;41676;44.610;44.078;2023-10-08T02:59:38;26.63;;;6.38;;
55756;SDS011;41676;44.610;44.078;2023-10-08T03:04:41;25.05;;;6.95;;
55756;SDS011;41676;44.610;44.078;2023-10-08T03:09:45;19.63;;;6.25;;
55756;SDS011;41676;44.610;44.078;2023-10-08T03:14:46;23.88;;;6.75;;
55756;SDS011;41676;44.610;44.078;2023-10-08T03:20:01;19.42;;;6.30;;
55756;SDS011;41676;44.610;44.078;2023-10-08T03:25:22;29.42;;;6.95;;
55756;SDS011;41676;44.610;44.078;2023-10-08T03:30:24;99.97;;;9.63;;
55756;SDS011;41676;44.610;44.078;2023-10-08T03:35:27;37.83;;;7.28;;
55756;SDS011;41676;44.610;44.078;2023-10-08T03:40:37;27.13;;;5.78;;
55756;SDS011;41676;44.610;44.078;2023-10-08T03:45:43;16.75;;;5.32;;
55756;SDS011;41676;44.610;44.078;2023-10-08T03:51:03;31.85;;;6.97;;
55756;SDS011;41676;44.610;44.078;2023-10-08T03:56:07;15.88;;;5.57;;
55756;SDS011;41676;44.610;44.078;2023-10-08T04:01:07;19.77;;;5.57;;
55756;SDS011;41676;44.610;44.078;2023-10-08T04:06:21;32.70;;;6.38;;
55756;SDS011;41676;44.610;44.078;2023-10-08T04:11:29;33.03;;;5.97;;
55756;SDS011;41676;44.610;44.078;2023-10-08T04:16:35;21.70;;;6.50;;
55756;SDS011;41676;44.610;44.078;2023-10-08T04:21:37;24.95;;;6.50;;
55756;SDS011;41676;44.610;44.078;2023-10-08T04:26:42;23.00;;;7.22;;
55756;SDS011;41676;44.610;44.078;2023-10-08T04:31:43;16.02;;;6.78;;
55756;SDS011;41676;44.610;44.078;2023-10-08T04:36:46;12.25;;;6.40;;
55756;SDS011;41676;44.610;44.078;2023-10-08T04:41:54;26.20;;;6.95;;
55756;SDS011;41676;44.610;44.078;2023-10-08T04:52:05;21.02;;;7.05;;
55756;SDS011;41676;44.610;44.078;2023-10-08T04:57:14;24.27;;;9.52;;
55756;SDS011;41676;44.610;44.078;2023-10-08T05:02:18;21.27;;;8.23;;
55756;SDS011;41676;44.610;44.078;2023-10-08T05:07:19;20.38;;;9.07;;
55756;SDS011;41676;44.610;44.078;2023-10-08T05:12:52;22.33;;;9.10;;
55756;SDS011;41676;44.610;44.078;2023-10-08T05:18:05;19.42;;;7.55;;
55756;SDS011;41676;44.610;44.078;2023-10-08T05:23:14;20.70;;;7.20;;
55756;SDS011;41676;44.610;44.078;2023-10-08T05:28:28;24.45;;;7.32;;
55756;SDS011;41676;44.610;44.078;2023-10-08T05:33:31;18.30;;;7.80;;
55756;SDS011;41676;44.610;44.078;2023-10-08T05:39:10;15.10;;;6.07;;
55756;SDS011;41676;44.610;44.078;2023-10-08T05:44:29;16.98;;;7.22;;
55756;SDS011;41676;44.610;44.078;2023-10-08T05:49:39;24.13;;;7.07;;
55756;SDS011;41676;44.610;44.078;2023-10-08T06:00:13;13.07;;;5.38;;
55756;SDS011;41676;44.610;44.078;2023-10-08T06:05:14;10.02;;;5.57;;
55756;SDS011;41676;44.610;44.078;2023-10-08T06:10:26;11.98;;;4.88;;
55756;SDS011;41676;44.610;44.078;2023-10-08T06:15:38;10.30;;;5.10;;
55756;SDS011;41676;44.610;44.078;2023-10-08T06:21:01;125.75;;;10.07;;
55756;SDS011;41676;44.610;44.078;2023-10-08T06:26:09;15.52;;;5.13;;
55756;SDS011;41676;44.610;44.078;2023-10-08T06:31:10;26.67;;;5.13;;
55756;SDS011;41676;44.610;44.078;2023-10-08T07:07:18;17.88;;;4.75;;
55756;SDS011;41676;44.610;44.078;2023-10-08T07:12:19;10.65;;;4.85;;
55756;SDS011;41676;44.610;44.078;2023-10-08T07:17:24;11.45;;;4.68;;
55756;SDS011;41676;44.610;44.078;2023-10-08T07:22:28;16.83;;;4.80;;
55756;SDS011;41676;44.610;44.078;2023-10-08T07:27:28;11.63;;;5.07;;
55756;SDS011;41676;44.610;44.078;2023-10-08T07:32:37;11.45;;;4.80;;
55756;SDS011;41676;44.610;44.078;2023-10-08T07:42:43;11.57;;;5.55;;
55756;SDS011;41676;44.610;44.078;2023-10-08T07:47:51;9.38;;;5.30;;
55756;SDS011;41676;44.610;44.078;2023-10-08T07:52:55;13.48;;;6.07;;
55756;SDS011;41676;44.610;44.078;2023-10-08T07:57:56;11.93;;;5.20;;
55756;SDS011;41676;44.610;44.078;2023-10-08T08:02:56;13.75;;;5.57;;
55756;SDS011;41676;44.610;44.078;2023-10-08T08:07:57;12.40;;;5.47;;
55756;SDS011;41676;44.610;44.078;2023-10-08T08:13:05;15.90;;;5.75;;
55756;SDS011;41676;44.610;44.078;2023-10-08T08:18:09;9.10;;;4.88;;
55756;SDS011;41676;44.610;44.078;2023-10-08T08:23:21;10.45;;;5.28;;
55756;SDS011;41676;44.610;44.078;2023-10-08T08:28:22;11.10;;;5.82;;
55756;SDS011;41676;44.610;44.078;2023-10-08T08:33:25;14.00;;;5.43;;
55756;SDS011;41676;44.610;44.078;2023-10-08T08:38:29;11.30;;;4.95;;
55756;SDS011;41676;44.610;44.078;2023-10-08T08:43:33;15.53;;;6.13;;
55756;SDS011;41676;44.610;44.078;2023-10-08T08:48:35;10.32;;;5.15;;
55756;SDS011;41676;44.610;44.078;2023-10-08T08:53:39;15.20;;;4.68;;
55756;SDS011;41676;44.610;44.078;2023-10-08T08:58:41;11.48;;;4.57;;
55756;SDS011;41676;44.610;44.078;2023-10-08T09:03:43;7.95;;;4.70;;
55756;SDS011;41676;44.610;44.078;2023-10-08T09:08:47;11.82;;;5.18;;
55756;SDS011;41676;44.610;44.078;2023-10-08T09:13:49;12.52;;;5.00;;
55756;SDS011;41676;44.610;44.078;2023-10-08T09:18:50;21.95;;;5.50;;
55756;SDS011;41676;44.610;44.078;2023-10-08T09:23:52;15.98;;;4.93;;
55756;SDS011;41676;44.610;44.078;2023-10-08T09:28:54;10.17;;;4.87;;
55756;SDS011;41676;44.610;44.078;2023-10-08T09:33:55;11.15;;;4.72;;
55756;SDS011;41676;44.610;44.078;2023-10-08T09:39:03;15.48;;;4.93;;
55756;SDS011;41676;44.610;44.078;2023-10-08T09:44:07;10.82;;;4.57;;
55756;SDS011;41676;44.610;44.078;2023-10-08T09:49:11;13.85;;;5.20;;
55756;SDS011;41676;44.610;44.078;2023-10-08T09:55:15;10.48;;;4.88;;
55756;SDS011;41676;44.610;44.078;2023-10-08T09:59:54;13.35;;;5.40;;
55756;SDS011;41676;44.610;44.078;2023-10-08T10:09:58;13.43;;;4.10;;
55756;SDS011;41676;44.610;44.078;2023-10-08T10:14:59;17.60;;;4.85;;
55756;SDS011;41676;44.610;44.078;2023-10-08T10:20:01;9.63;;;4.10;;
55756;SDS011;41676;44.610;44.078;2023-10-08T10:25:03;23.27;;;5.63;;
55756;SDS011;41676;44.610;44.078;2023-10-08T10:30:15;8.73;;;4.40;;
55756;SDS011;41676;44.610;44.078;2023-10-08T10:35:19;19.20;;;5.10;;
55756;SDS011;41676;44.610;44.078;2023-10-08T10:40:23;15.15;;;4.78;;
55756;SDS011;41676;44.610;44.078;2023-10-08T10:45:50;25.67;;;5.72;;
55756;SDS011;41676;44.610;44.078;2023-10-08T10:50:55;11.07;;;4.93;;
55756;SDS011;41676;44.610;44.078;2023-10-08T10:56:05;13.35;;;4.22;;
55756;SDS011;41676;44.610;44.078;2023-10-08T11:01:09;10.80;;;4.50;;
55756;SDS011;41676;44.610;44.078;2023-10-08T11:06:36;12.80;;;4.38;;
55756;SDS011;41676;44.610;44.078;2023-10-08T11:11:38;10.50;;;4.45;;
55756;SDS011;41676;44.610;44.078;2023-10-08T11:16:44;10.35;;;4.28;;
55756;SDS011;41676;44.610;44.078;2023-10-08T11:21:52;10.60;;;4.90;;
55756;SDS011;41676;44.610;44.078;2023-10-08T11:26:55;7.05;;;4.18;;
55756;SDS011;41676;44.610;44.078;2023-10-08T11:32:15;10.35;;;4.53;;
55756;SDS011;41676;44.610;44.078;2023-10-08T11:37:27;11.07;;;4.75;;
55756;SDS011;41676;44.610;44.078;2023-10-08T11:42:28;20.88;;;5.28;;
55756;SDS011;41676;44.610;44.078;2023-10-08T11:47:32;8.27;;;4.70;;
55756;SDS011;41676;44.610;44.078;2023-10-08T11:52:39;10.52;;;4.55;;
55756;SDS011;41676;44.610;44.078;2023-10-08T11:57:41;10.10;;;4.45;;
55756;SDS011;41676;44.610;44.078;2023-10-08T12:02:48;11.93;;;4.60;;
55756;SDS011;41676;44.610;44.078;2023-10-08T12:07:50;24.10;;;4.85;;
55756;SDS011;41676;44.610;44.078;2023-10-08T12:12:53;9.20;;;4.20;;
55756;SDS011;41676;44.610;44.078;2023-10-08T12:17:54;15.52;;;4.93;;
55756;SDS011;41676;44.610;44.078;2023-10-08T12:23:13;7.72;;;4.30;;
55756;SDS011;41676;44.610;44.078;2023-10-08T12:28:37;8.77;;;4.70;;
55756;SDS011;41676;44.610;44.078;2023-10-08T12:33:37;11.75;;;4.95;;
55756;SDS011;41676;44.610;44.078;2023-10-08T12:38:41;11.73;;;5.07;;
55756;SDS011;41676;44.610;44.078;2023-10-08T12:43:43;16.60;;;5.35;;
55756;SDS011;41676;44.610;44.078;2023-10-08T12:48:52;24.35;;;5.78;;
55756;SDS011;41676;44.610;44.078;2023-10-08T12:53:54;14.88;;;4.72;;
55756;SDS011;41676;44.610;44.078;2023-10-08T12:59:21;19.17;;;5.32;;
55756;SDS011;41676;44.610;44.078;2023-10-08T13:04:23;13.50;;;4.70;;
55756;SDS011;41676;44.610;44.078;2023-10-08T13:09:35;17.15;;;5.30;;
55756;SDS011;41676;44.610;44.078;2023-10-08T13:14:37;14.63;;;4.63;;
55756;SDS011;41676;44.610;44.078;2023-10-08T13:19:37;22.70;;;5.88;;
55756;SDS011;41676;44.610;44.078;2023-10-08T13:24:38;23.13;;;5.30;;
55756;SDS011;41676;44.610;44.078;2023-10-08T13:29:41;20.42;;;4.68;;
55756;SDS011;41676;44.610;44.078;2023-10-08T13:34:44;14.00;;;5.00;;
55756;SDS011;41676;44.610;44.078;2023-10-08T13:39:46;17.48;;;4.65;;
55756;SDS011;41676;44.610;44.078;2023-10-08T13:44:46;12.65;;;4.85;;
55756;SDS011;41676;44.610;44.078;2023-10-08T13:49:48;48.55;;;5.80;;
55756;SDS011;41676;44.610;44.078;2023-10-08T13:54:50;34.80;;;6.15;;
55756;SDS011;41676;44.610;44.078;2023-10-08T13:59:52;36.33;;;6.63;;
55756;SDS011;41676;44.610;44.078;2023-10-08T14:04:53;96.03;;;14.45;;
55756;SDS011;41676;44.610;44.078;2023-10-08T14:09:54;136.50;;;14.50;;
55756;SDS011;41676;44.610;44.078;2023-10-08T14:14:55;456.75;;;34.47;;
55756;SDS011;41676;44.610;44.078;2023-10-08T14:19:55;75.82;;;13.80;;
55756;SDS011;41676;44.610;44.078;2023-10-08T14:25:10;163.48;;;61.28;;
55756;SDS011;41676;44.610;44.078;2023-10-08T14:30:15;172.75;;;60.90;;
55756;SDS011;41676;44.610;44.078;2023-10-08T14:35:17;155.65;;;57.83;;
55756;SDS011;41676;44.610;44.078;2023-10-08T14:40:36;182.45;;;60.70;;
55756;SDS011;41676;44.610;44.078;2023-10-08T14:45:56;329.98;;;104.93;;
55756;SDS011;41676;44.610;44.078;2023-10-08T14:50:59;466.23;;;171.17;;
55756;SDS011;41676;44.610;44.078;2023-10-08T14:56:00;461.05;;;196.00;;
55756;SDS011;41676;44.610;44.078;2023-10-08T15:06:04;307.73;;;119.93;;
55756;SDS011;41676;44.610;44.078;2023-10-08T15:11:07;194.90;;;65.38;;
55756;SDS011;41676;44.610;44.078;2023-10-08T15:16:10;264.48;;;56.78;;
55756;SDS011;41676;44.610;44.078;2023-10-08T15:21:12;190.25;;;55.15;;
55756;SDS011;41676;44.610;44.078;2023-10-08T15:26:13;186.02;;;54.85;;
55756;SDS011;41676;44.610;44.078;2023-10-08T15:31:14;159.75;;;52.17;;
55756;SDS011;41676;44.610;44.078;2023-10-08T15:36:16;157.07;;;47.55;;
55756;SDS011;41676;44.610;44.078;2023-10-08T15:41:17;113.35;;;39.58;;
55756;SDS011;41676;44.610;44.078;2023-10-08T15:46:19;102.40;;;35.80;;
55756;SDS011;41676;44.610;44.078;2023-10-08T15:51:20;103.65;;;35.13;;
55756;SDS011;41676;44.610;44.078;2023-10-08T15:56:21;121.63;;;42.28;;
55756;SDS011;41676;44.610;44.078;2023-10-08T16:01:22;96.97;;;33.38;;
55756;SDS011;41676;44.610;44.078;2023-10-08T16:06:23;202.43;;;75.57;;
55756;SDS011;41676;44.610;44.078;2023-10-08T16:11:24;203.43;;;81.97;;
55756;SDS011;41676;44.610;44.078;2023-10-08T16:16:26;158.02;;;55.80;;
55756;SDS011;41676;44.610;44.078;2023-10-08T16:21:27;135.60;;;52.55;;
55756;SDS011;41676;44.610;44.078;2023-10-08T16:26:28;136.70;;;52.75;;
55756;SDS011;41676;44.610;44.078;2023-10-08T16:31:29;119.05;;;49.45;;
55756;SDS011;41676;44.610;44.078;2023-10-08T16:36:33;104.32;;;42.83;;
55756;SDS011;41676;44.610;44.078;2023-10-08T16:41:35;101.68;;;37.33;;
55756;SDS011;41676;44.610;44.078;2023-10-08T16:46:35;107.43;;;37.97;;
55756;SDS011;41676;44.610;44.078;2023-10-08T16:51:37;118.18;;;38.88;;
55756;SDS011;41676;44.610;44.078;2023-10-08T16:56:38;106.10;;;37.47;;
55756;SDS011;41676;44.610;44.078;2023-10-08T17:01:40;99.93;;;36.42;;
55756;SDS011;41676;44.610;44.078;2023-10-08T17:06:41;101.95;;;34.00;;
55756;SDS011;41676;44.610;44.078;2023-10-08T17:11:42;99.88;;;30.88;;
55756;SDS011;41676;44.610;44.078;2023-10-08T17:16:45;94.32;;;28.42;;
55756;SDS011;41676;44.610;44.078;2023-10-08T17:21:46;70.47;;;17.75;;
55756;SDS011;41676;44.610;44.078;2023-10-08T17:26:50;74.03;;;16.40;;
55756;SDS011;41676;44.610;44.078;2023-10-08T17:31:51;106.93;;;29.80;;
55756;SDS011;41676;44.610;44.078;2023-10-08T17:36:52;135.10;;;34.45;;
55756;SDS011;41676;44.610;44.078;2023-10-08T17:41:54;100.90;;;30.60;;
55756;SDS011;41676;44.610;44.078;2023-10-08T17:46:54;110.72;;;30.55;;
55756;SDS011;41676;44.610;44.078;2023-10-08T17:51:56;105.30;;;30.23;;
55756;SDS011;41676;44.610;44.078;2023-10-08T17:56:57;85.90;;;24.05;;
55756;SDS011;41676;44.610;44.078;2023-10-08T18:01:59;61.25;;;19.65;;
55756;SDS011;41676;44.610;44.078;2023-10-08T18:07:00;69.45;;;19.70;;
55756;SDS011;41676;44.610;44.078;2023-10-08T18:12:00;80.10;;;17.65;;
55756;SDS011;41676;44.610;44.078;2023-10-08T18:17:02;45.88;;;13.07;;
55756;SDS011;41676;44.610;44.078;2023-10-08T18:22:03;51.90;;;13.00;;
55756;SDS011;41676;44.610;44.078;2023-10-08T18:27:04;34.60;;;10.77;;
55756;SDS011;41676;44.610;44.078;2023-10-08T18:32:08;40.95;;;10.30;;
55756;SDS011;41676;44.610;44.078;2023-10-08T18:37:10;32.28;;;12.80;;
55756;SDS011;41676;44.610;44.078;2023-10-08T18:42:10;40.35;;;14.60;;
55756;SDS011;41676;44.610;44.078;2023-10-08T18:47:13;34.72;;;13.60;;
55756;SDS011;41676;44.610;44.078;2023-10-08T18:52:15;27.92;;;12.98;;
55756;SDS011;41676;44.610;44.078;2023-10-08T18:57:16;31.35;;;14.40;;
55756;SDS011;41676;44.610;44.078;2023-10-08T19:02:17;34.35;;;13.48;;
55756;SDS011;41676;44.610;44.078;2023-10-08T19:07:18;29.35;;;12.52;;
55756;SDS011;41676;44.610;44.078;2023-10-08T19:12:19;30.83;;;14.98;;
55756;SDS011;41676;44.610;44.078;2023-10-08T19:17:20;38.78;;;14.38;;
55756;SDS011;41676;44.610;44.078;2023-10-08T19:22:21;42.28;;;17.13;;
55756;SDS011;41676;44.610;44.078;2023-10-08T19:27:22;50.88;;;19.45;;
55756;SDS011;41676;44.610;44.078;2023-10-08T19:32:24;56.92;;;22.10;;
55756;SDS011;41676;44.610;44.078;2023-10-08T19:37:26;36.75;;;17.20;;
55756;SDS011;41676;44.610;44.078;2023-10-08T19:42:27;54.75;;;17.55;;
55756;SDS011;41676;44.610;44.078;2023-10-08T19:47:28;51.70;;;15.75;;
55756;SDS011;41676;44.610;44.078;2023-10-08T19:52:30;35.28;;;13.73;;
55756;SDS011;41676;44.610;44.078;2023-10-08T19:57:32;32.60;;;13.75;;
55756;SDS011;41676;44.610;44.078;2023-10-08T20:02:33;36.90;;;13.77;;
55756;SDS011;41676;44.610;44.078;2023-10-08T20:07:35;43.13;;;15.68;;
55756;SDS011;41676;44.610;44.078;2023-10-08T20:12:36;37.65;;;11.98;;
55756;SDS011;41676;44.610;44.078;2023-10-08T20:17:39;41.08;;;12.68;;
55756;SDS011;41676;44.610;44.078;2023-10-08T20:22:44;46.55;;;12.10;;
55756;SDS011;41676;44.610;44.078;2023-10-08T20:27:49;30.40;;;10.90;;
55756;SDS011;41676;44.610;44.078;2023-10-08T20:32:50;40.22;;;11.38;;
55756;SDS011;41676;44.610;44.078;2023-10-08T20:37:54;34.13;;;11.30;;
55756;SDS011;41676;44.610;44.078;2023-10-08T20:42:56;54.45;;;17.83;;
55756;SDS011;41676;44.610;44.078;2023-10-08T20:47:58;72.45;;;29.27;;
55756;SDS011;41676;44.610;44.078;2023-10-08T20:53:01;72.38;;;24.85;;
55756;SDS011;41676;44.610;44.078;2023-10-08T20:58:02;80.25;;;20.58;;
55756;SDS011;41676;44.610;44.078;2023-10-08T21:03:05;57.42;;;16.90;;
55756;SDS011;41676;44.610;44.078;2023-10-08T21:08:08;52.70;;;14.75;;
55756;SDS011;41676;44.610;44.078;2023-10-08T21:13:11;28.70;;;12.47;;
55756;SDS011;41676;44.610;44.078;2023-10-08T21:18:12;32.40;;;12.23;;
55756;SDS011;41676;44.610;44.078;2023-10-08T21:23:13;33.75;;;12.18;;
55756;SDS011;41676;44.610;44.078;2023-10-08T21:28:15;29.58;;;12.88;;
55756;SDS011;41676;44.610;44.078;2023-10-08T21:33:15;30.88;;;11.77;;
55756;SDS011;41676;44.610;44.078;2023-10-08T21:38:16;34.47;;;12.05;;
55756;SDS011;41676;44.610;44.078;2023-10-08T21:43:17;26.98;;;12.20;;
55756;SDS011;41676;44.610;44.078;2023-10-08T21:48:18;32.95;;;11.75;;
55756;SDS011;41676;44.610;44.078;2023-10-08T21:53:19;43.47;;;12.68;;
55756;SDS011;41676;44.610;44.078;2023-10-08T21:58:20;29.35;;;11.45;;
55756;SDS011;41676;44.610;44.078;2023-10-08T22:03:21;55.42;;;12.40;;
55756;SDS011;41676;44.610;44.078;2023-10-08T22:08:21;47.88;;;11.75;;
55756;SDS011;41676;44.610;44.078;2023-10-08T22:13:23;42.95;;;12.85;;
55756;SDS011;41676;44.610;44.078;2023-10-08T22:18:26;39.03;;;12.52;;
55756;SDS011;41676;44.610;44.078;2023-10-08T22:23:29;44.83;;;11.67;;
55756;SDS011;41676;44.610;44.078;2023-10-08T22:28:31;22.33;;;11.13;;
55756;SDS011;41676;44.610;44.078;2023-10-08T22:33:35;30.02;;;11.25;;
55756;SDS011;41676;44.610;44.078;2023-10-08T22:38:40;30.95;;;11.38;;
55756;SDS011;41676;44.610;44.078;2023-10-08T22:43:43;26.77;;;12.32;;
55756;SDS011;41676;44.610;44.078;2023-10-08T22:48:43;29.83;;;12.45;;
55756;SDS011;41676;44.610;44.078;2023-10-08T22:53:44;31.58;;;12.10;;
55756;SDS011;41676;44.610;44.078;2023-10-08T22:58:45;33.15;;;11.85;;
55756;SDS011;41676;44.610;44.078;2023-10-08T23:03:46;19.73;;;11.10;;
55756;SDS011;41676;44.610;44.078;2023-10-08T23:13:52;28.88;;;11.90;;
55756;SDS011;41676;44.610;44.078;2023-10-08T23:18:52;23.88;;;12.60;;
55756;SDS011;41676;44.610;44.078;2023-10-08T23:23:55;23.52;;;9.25;;
55756;SDS011;41676;44.610;44.078;2023-10-08T23:28:57;23.20;;;8.57;;
55756;SDS011;41676;44.610;44.078;2023-10-08T23:33:59;23.20;;;7.35;;
55756;SDS011;41676;44.610;44.078;2023-10-08T23:39:01;25.20;;;4.75;;
55756;SDS011;41676;44.610;44.078;2023-10-08T23:44:16;22.45;;;3.05;;
55756;SDS011;41676;44.610;44.078;2023-10-08T23:49:26;8.90;;;2.08;;
55756;SDS011;41676;44.610;44.078;2023-10-08T23:54:29;9.18;;;1.90;;
55756;SDS011;41676;44.610;44.078;2023-10-08T23:59:33;13.80;;;2.13;;
